createdAt,value
2018-02-11T00:00:52.104Z,1002.2
2018-02-11T00:01:54.817Z,1002.1
2018-02-11T00:02:57.235Z,1002.1
2018-02-11T00:03:59.946Z,1002.1
2018-02-11T00:05:02.376Z,1002.1
2018-02-11T00:06:04.796Z,1002.1
2018-02-11T00:07:07.211Z,1002.1
2018-02-11T00:08:09.934Z,1002
2018-02-11T00:09:12.341Z,1002
2018-02-11T00:10:14.773Z,1002
2018-02-11T00:11:17.475Z,1002
2018-02-11T00:12:19.891Z,1002
2018-02-11T00:13:22.319Z,1002
2018-02-11T00:14:24.744Z,1001.9
2018-02-11T00:15:27.161Z,1001.9
2018-02-11T00:16:29.594Z,1001.9
2018-02-11T00:17:32.301Z,1001.9
2018-02-11T00:18:35.011Z,1001.8
2018-02-11T00:19:37.442Z,1001.9
2018-02-11T00:20:39.864Z,1001.9
2018-02-11T00:21:42.286Z,1001.8
2018-02-11T00:22:44.697Z,1001.9
2018-02-11T00:23:47.126Z,1001.8
2018-02-11T00:24:49.541Z,1001.9
2018-02-11T00:25:51.970Z,1001.9
2018-02-11T00:26:54.382Z,1001.9
2018-02-11T00:27:56.804Z,1001.9
2018-02-11T00:28:59.227Z,1001.9
2018-02-11T00:30:02.235Z,1001.8
2018-02-11T00:31:04.938Z,1001.8
2018-02-11T00:32:07.668Z,1001.8
2018-02-11T00:33:10.103Z,1001.8
2018-02-11T00:34:12.508Z,1001.7
2018-02-11T00:35:14.929Z,1001.7
2018-02-11T00:36:17.351Z,1001.7
2018-02-11T00:37:19.773Z,1001.6
2018-02-11T00:38:22.198Z,1001.5
2018-02-11T00:39:24.616Z,1001.5
2018-02-11T00:40:27.034Z,1001.5
2018-02-11T00:41:29.464Z,1001.5
2018-02-11T00:42:31.893Z,1001.4
2018-02-11T00:43:34.599Z,1001.5
2018-02-11T00:44:37.020Z,1001.4
2018-02-11T00:45:39.445Z,1001.4
2018-02-11T00:46:41.859Z,1001.4
2018-02-11T00:47:44.278Z,1001.4
2018-02-11T00:48:46.720Z,1001.4
2018-02-11T00:49:49.418Z,1001.3
2018-02-11T00:50:51.835Z,1001.3
2018-02-11T00:51:54.258Z,1001.3
2018-02-11T00:52:56.688Z,1001.2
2018-02-11T00:53:59.118Z,1001.3
2018-02-11T00:55:01.542Z,1001.2
2018-02-11T00:56:03.951Z,1001.2
2018-02-11T00:57:06.375Z,1001.2
2018-02-11T00:58:08.806Z,1001.2
2018-02-11T00:59:11.223Z,1001.2
2018-02-11T01:00:13.646Z,1001.1
2018-02-11T01:01:16.063Z,1001.2
2018-02-11T01:02:18.491Z,1001.2
2018-02-11T01:03:21.260Z,1001.1
2018-02-11T01:04:23.688Z,1001.2
2018-02-11T01:05:26.089Z,1001.1
2018-02-11T01:06:28.511Z,1001
2018-02-11T01:07:30.933Z,1001.1
2018-02-11T01:08:33.356Z,1001.1
2018-02-11T01:09:35.783Z,1001.1
2018-02-11T01:10:38.199Z,1001.1
2018-02-11T01:11:40.628Z,1001
2018-02-11T01:12:43.060Z,1001.1
2018-02-11T01:13:45.481Z,1001
2018-02-11T01:14:47.907Z,1001
2018-02-11T01:15:50.322Z,1001
2018-02-11T01:16:52.746Z,1001
2018-02-11T01:17:55.162Z,1001
2018-02-11T01:18:57.577Z,1001
2018-02-11T01:20:00.009Z,1001
2018-02-11T01:21:03.013Z,1000.9
2018-02-11T01:22:05.426Z,1000.8
2018-02-11T01:23:07.861Z,1000.9
2018-02-11T01:24:10.283Z,1000.9
2018-02-11T01:25:12.708Z,1000.8
2018-02-11T01:26:15.125Z,1000.8
2018-02-11T01:27:17.545Z,1000.8
2018-02-11T01:28:19.954Z,1000.8
2018-02-11T01:29:22.387Z,1000.8
2018-02-11T01:30:24.793Z,1000.7
2018-02-11T01:31:27.227Z,1000.7
2018-02-11T01:32:29.652Z,1000.7
2018-02-11T01:33:32.062Z,1000.7
2018-02-11T01:34:34.487Z,1000.7
2018-02-11T01:35:36.905Z,1000.6
2018-02-11T01:36:39.324Z,1000.5
2018-02-11T01:37:41.752Z,1000.6
2018-02-11T01:38:44.172Z,1000.5
2018-02-11T01:39:46.594Z,1000.5
2018-02-11T01:40:49.025Z,1000.5
2018-02-11T01:41:51.444Z,1000.5
2018-02-11T01:42:53.856Z,1000.5
2018-02-11T01:43:56.283Z,1000.5
2018-02-11T01:44:58.703Z,1000.5
2018-02-11T01:46:01.124Z,1000.4
2018-02-11T01:47:03.546Z,1000.5
2018-02-11T01:48:05.982Z,1000.4
2018-02-11T01:49:08.400Z,1000.4
2018-02-11T01:50:10.819Z,1000.4
2018-02-11T01:51:13.240Z,1000.3
2018-02-11T01:52:15.948Z,1000.4
2018-02-11T01:53:18.368Z,1000.4
2018-02-11T01:54:20.789Z,1000.4
2018-02-11T01:55:23.200Z,1000.4
2018-02-11T01:56:25.621Z,1000.4
2018-02-11T01:57:28.042Z,1000.4
2018-02-11T01:58:30.473Z,1000.4
2018-02-11T01:59:32.894Z,1000.3
2018-02-11T02:00:35.591Z,1000.3
2018-02-11T02:01:38.293Z,1000.3
2018-02-11T02:02:40.731Z,1000.3
2018-02-11T02:03:43.147Z,1000.3
2018-02-11T02:04:45.565Z,1000.3
2018-02-11T02:05:47.992Z,1000.2
2018-02-11T02:06:50.689Z,1000.3
2018-02-11T02:07:53.118Z,1000.2
2018-02-11T02:08:55.552Z,1000.2
2018-02-11T02:09:57.957Z,1000.2
2018-02-11T02:11:00.383Z,1000.2
2018-02-11T02:12:02.800Z,1000.2
2018-02-11T02:13:05.220Z,1000.1
2018-02-11T02:14:07.643Z,1000.1
2018-02-11T02:15:10.348Z,1000.1
2018-02-11T02:16:13.086Z,1000
2018-02-11T02:17:15.790Z,1000
2018-02-11T02:18:18.223Z,1000
2018-02-11T02:19:20.646Z,999.9
2018-02-11T02:20:23.071Z,999.8
2018-02-11T02:21:25.501Z,999.9
2018-02-11T02:22:27.928Z,999.8
2018-02-11T02:23:30.341Z,999.8
2018-02-11T02:24:32.771Z,999.8
2018-02-11T02:25:35.191Z,999.8
2018-02-11T02:26:37.613Z,999.8
2018-02-11T02:27:40.032Z,999.8
2018-02-11T02:28:42.459Z,999.8
2018-02-11T02:29:45.157Z,999.8
2018-02-11T02:30:47.575Z,999.8
2018-02-11T02:31:49.992Z,999.8
2018-02-11T02:32:52.726Z,999.7
2018-02-11T02:33:55.160Z,999.8
2018-02-11T02:34:57.585Z,999.7
2018-02-11T02:36:00.009Z,999.7
2018-02-11T02:37:02.439Z,999.7
2018-02-11T02:38:04.854Z,999.7
2018-02-11T02:39:07.274Z,999.6
2018-02-11T02:40:09.695Z,999.6
2018-02-11T02:41:12.117Z,999.6
2018-02-11T02:42:14.537Z,999.5
2018-02-11T02:43:16.960Z,999.5
2018-02-11T02:44:19.389Z,999.4
2018-02-11T02:45:22.089Z,999.4
2018-02-11T02:46:24.504Z,999.3
2018-02-11T02:47:26.941Z,999.3
2018-02-11T02:48:29.661Z,999.4
2018-02-11T02:49:32.077Z,999.4
2018-02-11T02:50:34.506Z,999.3
2018-02-11T02:51:37.208Z,999.3
2018-02-11T02:52:39.628Z,999.3
2018-02-11T02:53:42.051Z,999.2
2018-02-11T02:54:44.743Z,999.2
2018-02-11T02:55:47.162Z,999.2
2018-02-11T02:56:49.596Z,999.1
2018-02-11T02:57:52.293Z,999.2
2018-02-11T02:58:55.027Z,999.1
2018-02-11T02:59:57.457Z,999.1
2018-02-11T03:01:00.453Z,999.1
2018-02-11T03:02:02.886Z,999
2018-02-11T03:03:05.301Z,999.1
2018-02-11T03:04:07.723Z,999
2018-02-11T03:05:10.151Z,999
2018-02-11T03:06:12.563Z,999
2018-02-11T03:07:14.987Z,999
2018-02-11T03:08:17.408Z,999
2018-02-11T03:09:19.822Z,999
2018-02-11T03:10:22.236Z,998.9
2018-02-11T03:11:24.947Z,998.9
2018-02-11T03:12:27.370Z,998.9
2018-02-11T03:13:29.794Z,998.9
2018-02-11T03:14:32.222Z,998.8
2018-02-11T03:15:34.647Z,998.8
2018-02-11T03:16:37.067Z,998.8
2018-02-11T03:17:39.483Z,998.8
2018-02-11T03:18:41.911Z,998.7
2018-02-11T03:19:44.619Z,998.7
2018-02-11T03:20:47.027Z,998.7
2018-02-11T03:21:49.455Z,998.7
2018-02-11T03:22:51.879Z,998.7
2018-02-11T03:23:54.297Z,998.7
2018-02-11T03:24:56.722Z,998.7
2018-02-11T03:25:59.141Z,998.7
2018-02-11T03:27:01.554Z,998.8
2018-02-11T03:28:03.993Z,998.7
2018-02-11T03:29:06.410Z,998.7
2018-02-11T03:30:08.829Z,998.7
2018-02-11T03:31:11.249Z,998.7
2018-02-11T03:32:13.673Z,998.7
2018-02-11T03:33:16.099Z,998.7
2018-02-11T03:34:18.525Z,998.7
2018-02-11T03:35:20.931Z,998.7
2018-02-11T03:36:23.361Z,998.6
2018-02-11T03:37:25.780Z,998.6
2018-02-11T03:38:28.205Z,998.5
2018-02-11T03:39:30.632Z,998.5
2018-02-11T03:40:33.050Z,998.6
2018-02-11T03:41:35.474Z,998.6
2018-02-11T03:42:37.906Z,998.6
2018-02-11T03:43:40.317Z,998.6
2018-02-11T03:44:42.751Z,998.6
2018-02-11T03:45:45.173Z,998.6
2018-02-11T03:46:47.581Z,998.6
2018-02-11T03:47:50.005Z,998.5
2018-02-11T03:48:52.422Z,998.6
2018-02-11T03:49:54.853Z,998.4
2018-02-11T03:50:57.274Z,998.5
2018-02-11T03:51:59.690Z,998.3
2018-02-11T03:53:02.107Z,998.3
2018-02-11T03:54:04.542Z,998.2
2018-02-11T03:55:06.954Z,998.2
2018-02-11T03:56:09.367Z,998.2
2018-02-11T03:57:12.087Z,998.2
2018-02-11T03:58:14.788Z,998.3
2018-02-11T03:59:17.224Z,998.2
2018-02-11T04:00:19.651Z,998.2
2018-02-11T04:01:22.069Z,998.1
2018-02-11T04:02:24.845Z,998.1
2018-02-11T04:03:27.223Z,998.1
2018-02-11T04:04:29.929Z,998.1
2018-02-11T04:05:32.626Z,998
2018-02-11T04:06:35.327Z,998
2018-02-11T04:07:37.742Z,998
2018-02-11T04:08:40.181Z,997.9
2018-02-11T04:09:42.599Z,998
2018-02-11T04:10:45.024Z,997.9
2018-02-11T04:11:47.442Z,997.9
2018-02-11T04:12:49.855Z,997.8
2018-02-11T04:13:52.276Z,997.8
2018-02-11T04:14:54.698Z,997.8
2018-02-11T04:15:57.119Z,997.8
2018-02-11T04:16:59.546Z,997.7
2018-02-11T04:18:01.962Z,997.8
2018-02-11T04:19:04.371Z,997.7
2018-02-11T04:20:06.797Z,997.7
2018-02-11T04:21:09.214Z,997.6
2018-02-11T04:22:11.640Z,997.6
2018-02-11T04:23:14.337Z,997.6
2018-02-11T04:24:16.759Z,997.6
2018-02-11T04:25:19.176Z,997.5
2018-02-11T04:26:21.602Z,997.5
2018-02-11T04:27:24.025Z,997.5
2018-02-11T04:28:26.451Z,997.5
2018-02-11T04:29:28.871Z,997.4
2018-02-11T04:30:31.291Z,997.3
2018-02-11T04:31:33.710Z,997.3
2018-02-11T04:32:36.127Z,997.3
2018-02-11T04:33:38.539Z,997.4
2018-02-11T04:34:40.965Z,997.3
2018-02-11T04:35:43.386Z,997.3
2018-02-11T04:36:45.802Z,997.3
2018-02-11T04:37:48.224Z,997.3
2018-02-11T04:38:50.650Z,997.3
2018-02-11T04:39:53.063Z,997.2
2018-02-11T04:40:55.496Z,997.2
2018-02-11T04:41:57.902Z,997.2
2018-02-11T04:43:00.312Z,997.2
2018-02-11T04:44:02.748Z,997.2
2018-02-11T04:45:05.158Z,997.1
2018-02-11T04:46:07.588Z,997.1
2018-02-11T04:47:10.288Z,997.1
2018-02-11T04:48:12.717Z,997.1
2018-02-11T04:49:15.418Z,997
2018-02-11T04:50:18.418Z,997
2018-02-11T04:51:20.829Z,997
2018-02-11T04:52:23.252Z,997
2018-02-11T04:53:25.669Z,997
2018-02-11T04:54:28.090Z,997
2018-02-11T04:55:30.514Z,997
2018-02-11T04:56:32.937Z,996.8
2018-02-11T04:57:35.351Z,996.8
2018-02-11T04:58:37.782Z,996.8
2018-02-11T04:59:40.198Z,996.8
2018-02-11T05:00:42.620Z,996.7
2018-02-11T05:01:45.040Z,996.7
2018-02-11T05:02:47.461Z,996.7
2018-02-11T05:03:49.882Z,996.7
2018-02-11T05:04:52.602Z,996.6
2018-02-11T05:05:55.008Z,996.7
2018-02-11T05:06:57.733Z,996.6
2018-02-11T05:08:00.157Z,996.5
2018-02-11T05:09:02.575Z,996.5
2018-02-11T05:10:04.998Z,996.5
2018-02-11T05:11:07.418Z,996.5
2018-02-11T05:12:09.830Z,996.4
2018-02-11T05:13:12.253Z,996.4
2018-02-11T05:14:14.669Z,996.4
2018-02-11T05:15:17.096Z,996.3
2018-02-11T05:16:19.518Z,996.3
2018-02-11T05:17:21.920Z,996.3
2018-02-11T05:18:24.342Z,996.3
2018-02-11T05:19:26.758Z,996.3
2018-02-11T05:20:29.182Z,996.3
2018-02-11T05:21:31.649Z,996.2
2018-02-11T05:22:34.015Z,996.2
2018-02-11T05:23:36.434Z,996.2
2018-02-11T05:24:38.862Z,996.2
2018-02-11T05:25:41.291Z,996.2
2018-02-11T05:26:43.703Z,996.2
2018-02-11T05:27:46.410Z,996.2
2018-02-11T05:28:49.104Z,996.1
2018-02-11T05:29:51.536Z,996
2018-02-11T05:30:53.956Z,996
2018-02-11T05:31:56.364Z,996
2018-02-11T05:32:58.790Z,996
2018-02-11T05:34:01.213Z,996
2018-02-11T05:35:03.635Z,995.9
2018-02-11T05:36:06.050Z,995.9
2018-02-11T05:37:08.462Z,995.8
2018-02-11T05:38:10.875Z,995.8
2018-02-11T05:39:13.311Z,995.8
2018-02-11T05:40:16.019Z,995.8
2018-02-11T05:41:18.427Z,995.8
2018-02-11T05:42:21.134Z,995.7
2018-02-11T05:43:23.548Z,995.7
2018-02-11T05:44:25.966Z,995.7
2018-02-11T05:45:28.388Z,995.6
2018-02-11T05:46:30.812Z,995.6
2018-02-11T05:47:33.240Z,995.5
2018-02-11T05:48:35.926Z,995.5
2018-02-11T05:49:38.634Z,995.4
2018-02-11T05:50:41.052Z,995.4
2018-02-11T05:51:43.756Z,995.4
2018-02-11T05:52:46.182Z,995.4
2018-02-11T05:53:48.603Z,995.4
2018-02-11T05:54:51.022Z,995.4
2018-02-11T05:55:53.741Z,995.3
2018-02-11T05:56:56.153Z,995.3
2018-02-11T05:57:58.872Z,995.2
2018-02-11T05:59:01.571Z,995.3
2018-02-11T06:00:03.993Z,995.3
2018-02-11T06:01:06.412Z,995.2
2018-02-11T06:02:08.829Z,995.2
2018-02-11T06:03:11.243Z,995.1
2018-02-11T06:04:13.661Z,995.1
2018-02-11T06:05:16.077Z,995
2018-02-11T06:06:18.778Z,995
2018-02-11T06:07:21.201Z,995
2018-02-11T06:08:23.627Z,995
2018-02-11T06:09:26.048Z,995
2018-02-11T06:10:28.465Z,995
2018-02-11T06:11:31.172Z,994.9
2018-02-11T06:12:33.586Z,995
2018-02-11T06:13:36.000Z,994.9
2018-02-11T06:14:38.726Z,994.8
2018-02-11T06:15:41.139Z,994.9
2018-02-11T06:16:43.849Z,994.8
2018-02-11T06:17:46.270Z,994.9
2018-02-11T06:18:48.683Z,994.9
2018-02-11T06:19:51.106Z,994.8
2018-02-11T06:20:53.531Z,994.8
2018-02-11T06:21:55.942Z,994.8
2018-02-11T06:22:58.365Z,994.8
2018-02-11T06:24:00.785Z,994.7
2018-02-11T06:25:03.491Z,994.8
2018-02-11T06:26:06.487Z,994.7
2018-02-11T06:27:09.189Z,994.7
2018-02-11T06:28:11.611Z,994.7
2018-02-11T06:29:14.035Z,994.7
2018-02-11T06:30:16.742Z,994.7
2018-02-11T06:31:19.154Z,994.7
2018-02-11T06:32:21.562Z,994.6
2018-02-11T06:33:23.990Z,994.6
2018-02-11T06:34:26.412Z,994.7
2018-02-11T06:35:28.827Z,994.7
2018-02-11T06:36:31.539Z,994.7
2018-02-11T06:37:33.963Z,994.7
2018-02-11T06:38:36.404Z,994.7
2018-02-11T06:39:38.828Z,994.6
2018-02-11T06:40:41.232Z,994.5
2018-02-11T06:41:43.968Z,994.5
2018-02-11T06:42:46.381Z,994.4
2018-02-11T06:43:48.796Z,994.4
2018-02-11T06:44:51.213Z,994.4
2018-02-11T06:45:53.935Z,994.4
2018-02-11T06:46:56.350Z,994.4
2018-02-11T06:47:58.763Z,994.4
2018-02-11T06:49:01.191Z,994.5
2018-02-11T06:50:03.908Z,994.3
2018-02-11T06:51:06.331Z,994.3
2018-02-11T06:52:08.757Z,994.2
2018-02-11T06:53:11.445Z,994.3
2018-02-11T06:54:13.878Z,994.2
2018-02-11T06:55:16.289Z,994.2
2018-02-11T06:56:18.707Z,994.2
2018-02-11T06:57:21.140Z,994.2
2018-02-11T06:58:23.553Z,994.2
2018-02-11T06:59:25.968Z,994.2
2018-02-11T07:00:28.385Z,994.2
2018-02-11T07:01:30.798Z,994.1
2018-02-11T07:02:33.217Z,994.1
2018-02-11T07:03:35.643Z,994.1
2018-02-11T07:04:38.344Z,994.1
2018-02-11T07:05:41.330Z,994.1
2018-02-11T07:06:43.764Z,994
2018-02-11T07:07:46.183Z,994
2018-02-11T07:08:48.609Z,994
2018-02-11T07:09:51.024Z,994
2018-02-11T07:10:53.452Z,994
2018-02-11T07:11:55.857Z,994
2018-02-11T07:12:58.564Z,993.9
2018-02-11T07:14:01.265Z,993.9
2018-02-11T07:15:03.688Z,993.8
2018-02-11T07:16:06.117Z,993.8
2018-02-11T07:17:08.547Z,993.8
2018-02-11T07:18:10.960Z,993.8
2018-02-11T07:19:13.677Z,993.9
2018-02-11T07:20:16.381Z,993.7
2018-02-11T07:21:18.798Z,993.7
2018-02-11T07:22:21.225Z,993.7
2018-02-11T07:23:23.924Z,993.6
2018-02-11T07:24:26.334Z,993.6
2018-02-11T07:25:28.756Z,993.6
2018-02-11T07:26:31.173Z,993.5
2018-02-11T07:27:33.594Z,993.6
2018-02-11T07:28:36.020Z,993.5
2018-02-11T07:29:38.428Z,993.5
2018-02-11T07:30:40.847Z,993.4
2018-02-11T07:31:43.265Z,993.4
2018-02-11T07:32:45.696Z,993.4
2018-02-11T07:33:48.113Z,993.5
2018-02-11T07:34:50.535Z,993.4
2018-02-11T07:35:52.979Z,993.4
2018-02-11T07:36:55.375Z,993.3
2018-02-11T07:37:58.083Z,993.3
2018-02-11T07:39:00.511Z,993.3
2018-02-11T07:40:03.226Z,993.4
2018-02-11T07:41:05.653Z,993.3
2018-02-11T07:42:08.070Z,993.4
2018-02-11T07:43:10.499Z,993.3
2018-02-11T07:44:12.918Z,993.2
2018-02-11T07:45:15.328Z,993.4
2018-02-11T07:46:18.065Z,993.2
2018-02-11T07:47:20.491Z,993.1
2018-02-11T07:48:22.908Z,993.2
2018-02-11T07:49:25.321Z,993
2018-02-11T07:50:28.025Z,993.1
2018-02-11T07:51:30.437Z,993.1
2018-02-11T07:52:32.875Z,993
2018-02-11T07:53:35.602Z,993
2018-02-11T07:54:38.300Z,992.9
2018-02-11T07:55:40.718Z,992.9
2018-02-11T07:56:43.137Z,992.9
2018-02-11T07:57:45.564Z,992.9
2018-02-11T07:58:47.977Z,992.9
2018-02-11T07:59:50.402Z,992.8
2018-02-11T08:00:52.815Z,992.7
2018-02-11T08:01:55.246Z,992.8
2018-02-11T08:02:57.665Z,992.8
2018-02-11T08:04:00.372Z,992.7
2018-02-11T08:05:02.789Z,992.7
2018-02-11T08:06:05.483Z,992.6
2018-02-11T08:07:07.913Z,992.6
2018-02-11T08:08:10.613Z,992.7
2018-02-11T08:09:13.026Z,992.5
2018-02-11T08:10:15.732Z,992.6
2018-02-11T08:11:18.149Z,992.5
2018-02-11T08:12:20.571Z,992.5
2018-02-11T08:13:22.991Z,992.4
2018-02-11T08:14:25.701Z,992.5
2018-02-11T08:15:28.131Z,992.5
2018-02-11T08:16:30.544Z,992.4
2018-02-11T08:17:32.980Z,992.4
2018-02-11T08:18:35.391Z,992.4
2018-02-11T08:19:37.807Z,992.3
2018-02-11T08:20:40.227Z,992.4
2018-02-11T08:21:42.641Z,992.4
2018-02-11T08:22:45.066Z,992.4
2018-02-11T08:23:47.495Z,992.4
2018-02-11T08:24:50.199Z,992.3
2018-02-11T08:25:52.904Z,992.4
2018-02-11T08:26:55.325Z,992.4
2018-02-11T08:27:57.744Z,992.3
2018-02-11T08:29:00.161Z,992.3
2018-02-11T08:30:02.594Z,992.3
2018-02-11T08:31:05.009Z,992.4
2018-02-11T08:32:07.433Z,992.3
2018-02-11T08:33:09.859Z,992.2
2018-02-11T08:34:12.280Z,992.2
2018-02-11T08:35:14.700Z,992.2
2018-02-11T08:36:17.434Z,992.2
2018-02-11T08:37:19.843Z,992.1
2018-02-11T08:38:22.270Z,992.2
2018-02-11T08:39:24.695Z,992.3
2018-02-11T08:40:27.398Z,992.2
2018-02-11T08:41:29.822Z,992.2
2018-02-11T08:42:32.254Z,992.3
2018-02-11T08:43:35.233Z,992.2
2018-02-11T08:44:37.656Z,992.2
2018-02-11T08:45:40.071Z,992.1
2018-02-11T08:46:42.492Z,992.2
2018-02-11T08:47:45.206Z,992.2
2018-02-11T08:48:47.907Z,992.2
2018-02-11T08:49:50.321Z,992.2
2018-02-11T08:50:52.748Z,992.2
2018-02-11T08:51:55.174Z,992.2
2018-02-11T08:52:57.600Z,992.2
2018-02-11T08:54:00.027Z,992.2
2018-02-11T08:55:02.737Z,992.2
2018-02-11T08:56:05.481Z,992.2
2018-02-11T08:57:08.149Z,992.3
2018-02-11T08:58:10.568Z,992.1
2018-02-11T08:59:12.988Z,992.2
2018-02-11T09:00:15.683Z,992.2
2018-02-11T09:01:18.116Z,992.3
2018-02-11T09:02:20.528Z,992.2
2018-02-11T09:03:22.954Z,992.2
2018-02-11T09:04:25.656Z,992.2
2018-02-11T09:05:28.077Z,992.1
2018-02-11T09:06:30.506Z,992.2
2018-02-11T09:07:32.935Z,992.3
2018-02-11T09:08:35.347Z,992.2
2018-02-11T09:09:37.769Z,992.1
2018-02-11T09:10:40.191Z,992
2018-02-11T09:11:42.611Z,992.1
2018-02-11T09:12:45.074Z,992
2018-02-11T09:13:47.753Z,992.1
2018-02-11T09:14:50.167Z,992.1
2018-02-11T09:15:52.587Z,992
2018-02-11T09:16:55.016Z,992.1
2018-02-11T09:17:57.711Z,992
2018-02-11T09:19:00.135Z,992
2018-02-11T09:20:02.555Z,992
2018-02-11T09:21:04.976Z,991.9
2018-02-11T09:22:07.405Z,991.9
2018-02-11T09:23:09.824Z,992.1
2018-02-11T09:24:12.246Z,991.9
2018-02-11T09:25:14.676Z,992
2018-02-11T09:26:17.099Z,992
2018-02-11T09:27:19.549Z,992
2018-02-11T09:28:21.924Z,991.9
2018-02-11T09:29:24.349Z,992.1
2018-02-11T09:30:26.770Z,992
2018-02-11T09:31:29.189Z,991.9
2018-02-11T09:32:31.606Z,992
2018-02-11T09:33:34.026Z,991.8
2018-02-11T09:34:36.455Z,991.8
2018-02-11T09:35:38.880Z,992.1
2018-02-11T09:36:41.301Z,992
2018-02-11T09:37:43.714Z,991.9
2018-02-11T09:38:46.140Z,991.8
2018-02-11T09:39:48.559Z,991.8
2018-02-11T09:40:50.978Z,991.9
2018-02-11T09:41:53.672Z,991.8
2018-02-11T09:42:56.087Z,991.8
2018-02-11T09:43:58.525Z,991.8
2018-02-11T09:45:00.995Z,991.8
2018-02-11T09:46:03.369Z,991.8
2018-02-11T09:47:05.787Z,991.8
2018-02-11T09:48:08.216Z,991.7
2018-02-11T09:49:10.642Z,991.8
2018-02-11T09:50:13.064Z,991.7
2018-02-11T09:51:15.472Z,991.7
2018-02-11T09:52:17.887Z,991.7
2018-02-11T09:53:20.600Z,991.7
2018-02-11T09:54:23.013Z,991.6
2018-02-11T09:55:25.434Z,991.5
2018-02-11T09:56:27.842Z,991.6
2018-02-11T09:57:30.260Z,991.4
2018-02-11T09:58:32.689Z,991.5
2018-02-11T09:59:35.106Z,991.4
2018-02-11T10:00:37.522Z,991.4
2018-02-11T10:01:39.942Z,991.4
2018-02-11T10:02:42.674Z,991.3
2018-02-11T10:03:45.098Z,991.6
2018-02-11T10:04:47.568Z,991.3
2018-02-11T10:05:49.932Z,991.2
2018-02-11T10:06:52.348Z,991.3
2018-02-11T10:07:55.071Z,991.3
2018-02-11T10:08:57.492Z,991.3
2018-02-11T10:09:59.906Z,991.2
2018-02-11T10:11:02.334Z,991.2
2018-02-11T10:12:04.752Z,991.3
2018-02-11T10:13:07.173Z,991.2
2018-02-11T10:14:09.590Z,991.2
2018-02-11T10:15:12.306Z,991.3
2018-02-11T10:16:15.016Z,991.2
2018-02-11T10:17:17.441Z,991.2
2018-02-11T10:18:19.871Z,991.2
2018-02-11T10:19:22.266Z,991.1
2018-02-11T10:20:24.694Z,991.1
2018-02-11T10:21:27.106Z,991.2
2018-02-11T10:22:29.521Z,991.1
2018-02-11T10:23:32.235Z,991.2
2018-02-11T10:24:34.652Z,991.1
2018-02-11T10:25:37.357Z,991.1
2018-02-11T10:26:39.786Z,991
2018-02-11T10:27:42.502Z,991
2018-02-11T10:28:44.901Z,991
2018-02-11T10:29:47.333Z,991.1
2018-02-11T10:30:49.731Z,991
2018-02-11T10:31:52.173Z,991
2018-02-11T10:32:54.592Z,991.2
2018-02-11T10:33:57.044Z,990.8
2018-02-11T10:34:59.428Z,991
2018-02-11T10:36:02.152Z,990.9
2018-02-11T10:37:04.843Z,990.9
2018-02-11T10:38:07.262Z,991
2018-02-11T10:39:09.685Z,990.9
2018-02-11T10:40:12.112Z,990.8
2018-02-11T10:41:14.516Z,990.8
2018-02-11T10:42:16.945Z,990.7
2018-02-11T10:43:19.367Z,990.8
2018-02-11T10:44:21.784Z,990.8
2018-02-11T10:45:24.212Z,990.9
2018-02-11T10:46:26.625Z,990.8
2018-02-11T10:47:29.042Z,990.8
2018-02-11T10:48:31.465Z,990.7
2018-02-11T10:49:33.876Z,990.7
2018-02-11T10:50:36.299Z,990.7
2018-02-11T10:51:38.717Z,990.7
2018-02-11T10:52:41.145Z,990.8
2018-02-11T10:53:43.565Z,990.8
2018-02-11T10:54:45.989Z,990.7
2018-02-11T10:55:48.400Z,990.8
2018-02-11T10:56:50.823Z,990.7
2018-02-11T10:57:53.236Z,990.7
2018-02-11T10:58:55.658Z,990.7
2018-02-11T10:59:58.079Z,990.7
2018-02-11T11:01:00.496Z,990.6
2018-02-11T11:02:03.205Z,990.8
2018-02-11T11:03:05.913Z,990.7
2018-02-11T11:04:08.329Z,990.7
2018-02-11T11:05:10.745Z,990.8
2018-02-11T11:06:13.447Z,990.8
2018-02-11T11:07:15.865Z,990.8
2018-02-11T11:08:18.292Z,990.7
2018-02-11T11:09:20.711Z,990.8
2018-02-11T11:10:23.133Z,990.8
2018-02-11T11:11:25.555Z,990.8
2018-02-11T11:12:27.981Z,990.7
2018-02-11T11:13:30.403Z,990.6
2018-02-11T11:14:32.829Z,990.5
2018-02-11T11:15:35.238Z,990.7
2018-02-11T11:16:37.662Z,990.6
2018-02-11T11:17:40.372Z,990.7
2018-02-11T11:18:42.791Z,990.7
2018-02-11T11:19:45.213Z,990.8
2018-02-11T11:20:47.917Z,990.7
2018-02-11T11:21:50.347Z,990.8
2018-02-11T11:22:52.758Z,990.7
2018-02-11T11:23:55.172Z,990.7
2018-02-11T11:24:57.595Z,990.7
2018-02-11T11:26:00.022Z,990.7
2018-02-11T11:27:02.436Z,990.8
2018-02-11T11:28:04.860Z,990.7
2018-02-11T11:29:07.279Z,990.7
2018-02-11T11:30:09.691Z,990.7
2018-02-11T11:31:12.124Z,990.7
2018-02-11T11:32:14.540Z,990.7
2018-02-11T11:33:16.964Z,990.6
2018-02-11T11:34:19.385Z,990.8
2018-02-11T11:35:21.803Z,990.8
2018-02-11T11:36:24.229Z,990.7
2018-02-11T11:37:26.941Z,990.7
2018-02-11T11:38:29.355Z,990.7
2018-02-11T11:39:31.792Z,990.6
2018-02-11T11:40:34.207Z,990.6
2018-02-11T11:41:36.629Z,990.7
2018-02-11T11:42:39.043Z,990.7
2018-02-11T11:43:41.473Z,990.7
2018-02-11T11:44:43.884Z,990.6
2018-02-11T11:45:46.304Z,990.6
2018-02-11T11:46:49.032Z,990.6
2018-02-11T11:47:51.446Z,990.6
2018-02-11T11:48:53.863Z,990.5
2018-02-11T11:49:56.296Z,990.6
2018-02-11T11:50:58.708Z,990.7
2018-02-11T11:52:01.135Z,990.6
2018-02-11T11:53:03.560Z,990.6
2018-02-11T11:54:05.986Z,990.6
2018-02-11T11:55:08.411Z,990.6
2018-02-11T11:56:11.123Z,990.6
2018-02-11T11:57:13.546Z,990.6
2018-02-11T11:58:15.973Z,990.6
2018-02-11T11:59:18.395Z,990.5
2018-02-11T12:00:20.804Z,990.6
2018-02-11T12:01:23.218Z,990.5
2018-02-11T12:02:25.640Z,990.5
2018-02-11T12:03:28.095Z,990.4
2018-02-11T12:04:30.481Z,990.5
2018-02-11T12:05:32.903Z,990.4
2018-02-11T12:06:35.614Z,990.4
2018-02-11T12:07:38.327Z,990.5
2018-02-11T12:08:40.756Z,990.5
2018-02-11T12:09:43.168Z,990.5
2018-02-11T12:10:45.588Z,990.4
2018-02-11T12:11:48.016Z,990.4
2018-02-11T12:12:50.438Z,990.4
2018-02-11T12:13:52.850Z,990.3
2018-02-11T12:14:55.279Z,990.4
2018-02-11T12:15:57.706Z,990.4
2018-02-11T12:17:00.131Z,990.4
2018-02-11T12:18:02.551Z,990.4
2018-02-11T12:19:04.971Z,990.4
2018-02-11T12:20:07.385Z,990.3
2018-02-11T12:21:09.822Z,990.5
2018-02-11T12:22:12.236Z,990.4
2018-02-11T12:23:14.654Z,990.5
2018-02-11T12:24:17.083Z,990.5
2018-02-11T12:25:19.502Z,990.5
2018-02-11T12:26:21.929Z,990.6
2018-02-11T12:27:24.353Z,990.5
2018-02-11T12:28:26.755Z,990.4
2018-02-11T12:29:29.173Z,990.5
2018-02-11T12:30:31.594Z,990.5
2018-02-11T12:31:34.018Z,990.4
2018-02-11T12:32:36.443Z,990.4
2018-02-11T12:33:38.866Z,990.4
2018-02-11T12:34:41.287Z,990.3
2018-02-11T12:35:43.722Z,990.3
2018-02-11T12:36:46.143Z,990.3
2018-02-11T12:37:48.554Z,990.3
2018-02-11T12:38:50.967Z,990.4
2018-02-11T12:39:53.394Z,990.4
2018-02-11T12:40:56.098Z,990.5
2018-02-11T12:41:58.520Z,990.4
2018-02-11T12:43:00.945Z,990.4
2018-02-11T12:44:03.374Z,990.2
2018-02-11T12:45:05.800Z,990.3
2018-02-11T12:46:08.226Z,990.2
2018-02-11T12:47:10.632Z,990.2
2018-02-11T12:48:13.053Z,990.1
2018-02-11T12:49:15.476Z,990.1
2018-02-11T12:50:17.894Z,990.2
2018-02-11T12:51:20.310Z,990.2
2018-02-11T12:52:22.721Z,990.2
2018-02-11T12:53:25.145Z,990.1
2018-02-11T12:54:27.577Z,990.2
2018-02-11T12:55:30.279Z,990.2
2018-02-11T12:56:32.713Z,990.3
2018-02-11T12:57:35.137Z,990.2
2018-02-11T12:58:37.552Z,990.2
2018-02-11T12:59:39.985Z,990.2
2018-02-11T13:00:42.404Z,990.3
2018-02-11T13:01:44.814Z,990.2
2018-02-11T13:02:47.242Z,990.3
2018-02-11T13:03:49.666Z,990.3
2018-02-11T13:04:52.090Z,990.3
2018-02-11T13:05:54.508Z,990.3
2018-02-11T13:06:56.939Z,990.3
2018-02-11T13:07:59.407Z,990.4
2018-02-11T13:09:01.772Z,990.3
2018-02-11T13:10:04.202Z,990.3
2018-02-11T13:11:06.620Z,990.3
2018-02-11T13:12:09.053Z,990.3
2018-02-11T13:13:11.467Z,990.3
2018-02-11T13:14:13.889Z,990.2
2018-02-11T13:15:16.330Z,990.3
2018-02-11T13:16:18.739Z,990.2
2018-02-11T13:17:21.448Z,990.3
2018-02-11T13:18:24.152Z,990.2
2018-02-11T13:19:26.561Z,990.3
2018-02-11T13:20:29.000Z,990.3
2018-02-11T13:21:31.716Z,990.2
2018-02-11T13:22:34.131Z,990.3
2018-02-11T13:23:36.848Z,990.3
2018-02-11T13:24:39.272Z,990.3
2018-02-11T13:25:41.694Z,990.3